Time;durP1;ratioP1;P1;durP2;ratioP2;P2;SDS_P1;SDS_P2;PMS_P1;PMS_P2;Temp;Humidity;BMP_temperature;BMP_pressure;BME280_temperature;BME280_humidity;BME280_pressure;Samples;Min_cycle;Max_cycle;Signal;HPM_P1;HPM_P2
2023/06/16 00:01:42;;;;;;;6.20;5.63;;;20.90;57.80;;;23.63;41.78;101718.19;5055184;28;20606;-59
2023/06/16 00:04:10;;;;;;;7.07;6.20;;;20.90;58.10;;;23.61;41.98;101719.47;5056920;28;20190;-58
2023/06/16 00:06:37;;;;;;;8.97;6.37;;;20.90;58.40;;;23.60;42.32;101723.22;5056937;28;20224;-61
2023/06/16 00:09:06;;;;;;;6.63;5.93;;;20.90;58.70;;;23.58;42.38;101717.28;5057324;28;20224;-56
2023/06/16 00:11:33;;;;;;;6.27;5.77;;;20.80;59.10;;;23.57;42.75;101724.50;5057006;28;20227;-59
2023/06/16 00:14:00;;;;;;;6.40;5.87;;;20.80;59.30;;;23.58;42.50;101725.34;5054665;28;20312;-56
2023/06/16 00:16:27;;;;;;;7.23;6.27;;;20.80;59.30;;;23.56;43.14;101728.25;5036885;28;20257;-58
2023/06/16 00:18:57;;;;;;;7.77;6.17;;;20.80;59.60;;;23.55;43.00;101726.63;5037124;28;20212;-57
2023/06/16 00:21:27;;;;;;;7.17;6.00;;;20.80;59.60;;;23.54;42.76;101727.66;5037058;28;20667;-56
2023/06/16 00:23:55;;;;;;;6.50;5.90;;;20.80;59.70;;;23.54;42.95;101719.59;5036660;28;20213;-57
2023/06/16 00:26:24;;;;;;;7.07;6.20;;;20.80;60.50;;;23.52;43.05;101719.84;5037142;28;20206;-54
2023/06/16 00:28:51;;;;;;;6.53;5.90;;;20.80;60.30;;;23.52;43.14;101717.16;5036934;28;20201;-59
2023/06/16 00:31:18;;;;;;;8.63;6.13;;;20.80;60.40;;;23.51;43.35;101709.31;5037214;28;20194;-56
2023/06/16 00:33:45;;;;;;;5.73;5.20;;;20.80;60.70;;;23.50;43.52;101713.06;5037375;28;20242;-59
2023/06/16 00:36:12;;;;;;;6.40;5.50;;;20.80;60.90;;;23.49;43.55;101711.41;5037008;28;20297;-54
2023/06/16 00:38:39;;;;;;;8.43;7.00;;;20.70;61.00;;;23.47;43.93;101708.16;5036991;28;20270;-57
2023/06/16 00:41:06;;;;;;;7.67;5.70;;;20.70;61.00;;;23.45;43.68;101715.66;5038202;28;20273;-61
2023/06/16 00:43:34;;;;;;;6.80;6.20;;;20.70;61.40;;;23.43;43.83;101712.38;5036777;28;20274;-57
2023/06/16 00:46:01;;;;;;;7.53;5.73;;;20.70;61.40;;;23.41;44.00;101706.44;5036919;28;20302;-56
2023/06/16 00:48:28;;;;;;;7.27;6.57;;;20.70;61.80;;;23.40;44.56;101710.16;5037804;28;20222;-56
2023/06/16 00:50:55;;;;;;;7.13;6.23;;;20.60;62.20;;;23.36;44.11;101712.50;5055399;28;20285;-56
2023/06/16 00:53:25;;;;;;;7.03;6.40;;;20.60;62.20;;;23.38;44.56;101710.41;5057577;28;20287;-56
2023/06/16 00:55:52;;;;;;;7.10;6.50;;;20.60;62.80;;;23.36;44.67;101712.50;5057519;28;20661;-55
2023/06/16 00:58:20;;;;;;;8.33;6.83;;;20.60;62.90;;;23.34;44.74;101711.88;5056944;28;20753;-59
2023/06/16 01:00:49;;;;;;;7.27;6.67;;;20.60;63.10;;;23.30;44.87;101708.03;5056665;28;20197;-57
2023/06/16 01:03:17;;;;;;;7.80;6.97;;;20.50;63.40;;;23.28;44.52;101710.13;5056529;28;20213;-56
2023/06/16 01:05:44;;;;;;;7.57;6.73;;;20.60;63.50;;;23.26;45.10;101708.72;5057154;28;20216;-57
2023/06/16 01:08:25;;;;;;;8.20;7.40;;;20.50;63.90;;;23.23;45.31;101711.88;5057085;28;20190;-58
2023/06/16 01:11:05;;;;;;;7.43;6.83;;;20.50;64.40;;;23.21;45.30;101708.59;5055969;28;20170;-58
2023/06/16 01:13:45;;;;;;;9.93;7.37;;;20.50;64.40;;;23.21;45.61;101704.06;5054594;28;20208;-58
2023/06/16 01:16:21;;;;;;;9.40;7.47;;;20.50;65.70;;;23.23;45.57;101701.13;5043610;28;20246;-58
2023/06/16 01:18:51;;;;;;;8.70;7.80;;;20.50;64.90;;;23.23;45.88;101701.13;5034661;28;20632;-56
2023/06/16 01:21:31;;;;;;;8.20;7.53;;;20.50;65.50;;;23.19;45.88;101700.78;5034675;28;20190;-58
2023/06/16 01:24:05;;;;;;;9.23;7.17;;;20.50;65.70;;;23.17;46.17;101700.22;5034341;28;20190;-56
2023/06/16 01:26:37;;;;;;;7.67;7.07;;;20.40;65.80;;;23.18;46.14;101709.06;5034691;28;20193;-57
2023/06/16 01:29:08;;;;;;;8.63;7.93;;;20.40;66.20;;;23.18;46.36;101709.06;5035007;28;20207;-59
2023/06/16 01:31:36;;;;;;;8.83;8.07;;;20.40;66.50;;;23.17;46.23;101712.81;5035721;28;20718;-57
2023/06/16 01:34:07;;;;;;;8.63;7.73;;;20.40;66.60;;;23.16;46.31;101713.88;5034081;28;20219;-58
2023/06/16 01:36:39;;;;;;;9.33;8.33;;;20.40;66.80;;;23.14;46.68;101714.09;5034305;28;20185;-59
2023/06/16 01:39:09;;;;;;;8.73;7.87;;;20.40;67.10;;;23.12;46.58;101710.00;5034365;28;20647;-59
2023/06/16 01:44:17;;;;;;;8.90;8.10;;;20.30;67.20;;;23.09;46.98;101715.84;5090102;27;20941;-58
2023/06/16 01:46:46;;;;;;;11.63;8.57;;;20.30;67.50;;;23.06;46.87;101705.59;5056136;28;20229;-58
2023/06/16 01:49:15;;;;;;;9.40;8.50;;;20.30;67.70;;;23.04;47.20;101696.91;5061661;28;20240;-59
2023/06/16 01:51:42;;;;;;;11.17;8.67;;;20.30;68.00;;;23.02;47.29;101696.34;5070762;28;20276;-59
2023/06/16 01:54:09;;;;;;;9.83;8.83;;;20.30;68.10;;;22.99;47.08;101692.25;5070432;28;20716;-59
2023/06/16 01:56:36;;;;;;;9.50;8.70;;;20.20;68.00;;;22.99;47.36;101696.81;5070208;28;20247;-57
2023/06/16 01:59:03;;;;;;;9.67;8.73;;;20.20;68.40;;;22.97;47.44;101693.53;5070827;28;20618;-58
2023/06/16 02:01:42;;;;;;;11.33;10.23;;;20.20;68.70;;;22.94;47.55;101694.03;5070646;28;20196;-59
2023/06/16 02:04:14;;;;;;;11.07;9.97;;;20.20;69.10;;;22.92;48.32;101691.53;5069725;28;20749;-56
2023/06/16 02:06:47;;;;;;;10.47;9.57;;;20.20;69.30;;;22.92;48.07;101688.06;5069825;28;20232;-59
2023/06/16 02:09:16;;;;;;;11.30;9.57;;;20.20;69.50;;;22.90;48.17;101686.41;5070816;28;20583;-58
2023/06/16 02:11:46;;;;;;;11.27;9.83;;;20.10;69.30;;;22.87;48.19;101681.50;5069997;28;20209;-56
2023/06/16 02:14:13;;;;;;;11.67;10.00;;;20.10;69.50;;;22.86;48.36;101684.44;5069808;28;20269;-59
2023/06/16 02:16:42;;;;;;;10.33;9.23;;;20.10;69.70;;;22.83;48.44;101680.34;5069965;28;20276;-55
2023/06/16 02:19:11;;;;;;;10.73;9.73;;;20.10;69.90;;;22.82;48.54;101680.59;5070747;28;20173;-58
2023/06/16 02:21:41;;;;;;;13.47;10.17;;;20.10;70.90;;;22.80;48.66;101675.44;5054155;28;20252;-57
2023/06/16 02:24:09;;;;;;;10.90;9.80;;;20.00;70.20;;;22.81;48.65;101682.44;5049760;28;20235;-58
2023/06/16 02:26:39;;;;;;;12.63;10.40;;;20.00;70.30;;;22.79;48.65;101684.53;5050217;28;20190;-58
2023/06/16 02:29:06;;;;;;;15.33;11.20;;;20.00;70.20;;;22.77;48.78;101681.25;5049159;28;20217;-59
2023/06/16 02:31:33;;;;;;;11.80;10.70;;;20.00;70.40;;;22.74;48.75;101681.72;5050260;28;20186;-56
2023/06/16 02:34:01;;;;;;;11.60;10.50;;;20.00;70.40;;;22.72;48.86;101681.16;5049460;28;20193;-60
2023/06/16 02:36:29;;;;;;;12.63;10.77;;;19.90;70.50;;;22.71;48.79;101678.69;5050917;28;20642;-59
2023/06/16 02:38:56;;;;;;;12.10;11.00;;;19.90;70.70;;;22.70;49.37;101683.22;5049768;28;20187;-57
2023/06/16 02:41:23;;;;;;;10.60;9.50;;;19.90;71.00;;;22.68;49.35;101671.91;5060816;28;20199;-62
2023/06/16 02:43:50;;;;;;;10.27;9.13;;;19.90;71.20;;;22.72;49.44;101680.34;5049373;28;20214;-59
2023/06/16 02:46:16;;;;;;;12.37;11.07;;;19.90;71.20;;;22.73;49.21;101680.09;5049524;28;20649;-59
2023/06/16 02:48:43;;;;;;;11.03;9.87;;;19.90;71.30;;;22.72;48.95;101678.47;5049693;28;20197;-59
2023/06/16 02:51:12;;;;;;;11.23;10.13;;;19.90;71.30;;;22.71;49.23;101670.63;5061517;28;20197;-58
2023/06/16 02:53:39;;;;;;;11.53;10.47;;;19.90;71.30;;;22.71;49.37;101676.00;5066751;28;20289;-59
2023/06/16 02:56:07;;;;;;;12.83;10.23;;;19.90;71.60;;;22.69;49.82;101678.94;5056313;28;20205;-59
2023/06/16 02:58:34;;;;;;;11.90;10.60;;;19.90;71.90;;;22.67;49.04;101675.66;5056095;28;20541;-58
2023/06/16 03:01:01;;;;;;;11.20;10.23;;;19.90;71.50;;;22.64;49.16;101670.75;5056202;28;20611;-57
2023/06/16 03:03:30;;;;;;;13.23;11.30;;;19.80;71.50;;;22.63;49.53;101679.81;5054895;28;20300;-58
2023/06/16 03:05:58;;;;;;;11.87;10.67;;;19.90;71.90;;;22.62;49.78;101672.84;5055808;28;20675;-60
2023/06/16 03:08:27;;;;;;;10.33;9.27;;;19.80;72.00;;;22.61;49.83;101681.09;5055695;28;20198;-59
2023/06/16 03:10:54;;;;;;;12.37;11.07;;;19.80;72.20;;;22.61;49.70;101671.19;5055701;28;20186;-58
2023/06/16 03:13:21;;;;;;;11.70;10.60;;;19.80;72.30;;;22.63;49.68;101684.41;5055193;28;20268;-57
2023/06/16 03:15:50;;;;;;;11.17;10.07;;;19.80;72.20;;;22.62;49.57;101678.22;5055454;28;20789;-58
2023/06/16 03:18:17;;;;;;;11.80;10.53;;;19.80;72.10;;;22.62;49.69;101675.53;5054985;28;20193;-56
2023/06/16 03:20:47;;;;;;;11.57;10.47;;;19.80;72.20;;;22.61;49.85;101684.63;5055636;28;20595;-58
2023/06/16 03:23:14;;;;;;;10.80;9.73;;;19.80;72.10;;;22.62;49.62;101677.38;5055173;28;20233;-56
2023/06/16 03:25:43;;;;;;;11.77;10.07;;;19.70;72.10;;;22.61;49.61;101673.88;5055423;28;20206;-58
2023/06/16 03:28:10;;;;;;;12.97;10.87;;;19.70;72.30;;;22.60;49.43;101674.91;5055579;28;20523;-58
2023/06/16 03:30:36;;;;;;;11.70;10.50;;;19.70;72.30;;;22.61;49.71;101671.19;5054883;28;20272;-60
2023/06/16 03:33:04;;;;;;;13.80;12.40;;;19.70;72.10;;;22.61;49.81;101662.31;5035265;28;20215;-58
2023/06/16 03:35:31;;;;;;;12.23;11.03;;;19.70;73.20;;;22.61;49.71;101662.31;5035261;28;20691;-58
2023/06/16 03:37:58;;;;;;;13.30;11.93;;;19.70;72.50;;;22.59;49.59;101661.69;5039015;28;20204;-59
2023/06/16 03:40:24;;;;;;;12.70;11.47;;;19.70;72.50;;;22.60;49.73;101666.03;5055098;28;20542;-58
2023/06/16 03:42:53;;;;;;;12.97;10.83;;;19.70;72.60;;;22.64;49.95;101654.63;5054880;28;20304;-58
2023/06/16 03:45:20;;;;;;;11.23;10.27;;;19.70;72.50;;;22.71;50.18;101668.75;5054348;28;20523;-58
2023/06/16 03:47:47;;;;;;;11.20;10.10;;;19.80;72.70;;;22.77;49.66;101670.50;5055364;28;20623;-59
2023/06/16 03:50:14;;;;;;;13.53;12.17;;;19.80;72.30;;;22.85;49.47;101672.88;5053957;28;20205;-58
2023/06/16 03:52:41;;;;;;;13.97;12.47;;;19.90;72.10;;;22.90;49.48;101674.84;5054703;28;20194;-60
2023/06/16 03:55:08;;;;;;;14.33;12.87;;;19.90;71.70;;;22.92;48.98;101675.44;5054750;28;20289;-60
2023/06/16 03:57:35;;;;;;;15.60;13.20;;;19.90;71.40;;;22.90;48.81;101681.03;5054548;28;20192;-60
2023/06/16 04:00:08;;;;;;;15.27;13.70;;;20.00;71.30;;;22.88;48.92;101685.84;5036533;28;20225;-60
2023/06/16 04:02:36;;;;;;;14.60;13.10;;;20.00;71.30;;;22.87;48.78;101681.50;5034973;28;20175;-57
2023/06/16 04:05:04;;;;;;;17.77;14.07;;;19.90;71.30;;;22.88;48.72;101688.53;5045344;28;20702;-60
2023/06/16 04:07:31;;;;;;;12.47;11.17;;;19.90;71.30;;;22.85;48.93;101688.16;5033590;28;20273;-58
2023/06/16 04:09:58;;;;;;;13.63;12.27;;;19.90;71.40;;;22.82;49.16;101684.06;5033543;28;20276;-57
2023/06/16 04:12:26;;;;;;;16.07;12.50;;;19.90;71.40;;;22.83;49.22;101685.72;5042834;28;20200;-57
2023/06/16 04:14:52;;;;;;;13.70;11.27;;;19.80;71.40;;;22.82;49.24;101689.44;5053732;28;20545;-59
2023/06/16 04:17:21;;;;;;;14.40;13.00;;;19.80;71.70;;;22.84;48.86;101686.53;5054358;28;20225;-59
2023/06/16 04:19:48;;;;;;;13.73;12.33;;;19.80;71.40;;;22.80;48.83;101683.47;5054593;28;20194;-59
2023/06/16 04:22:15;;;;;;;14.50;12.97;;;19.90;71.30;;;22.77;48.90;101680.47;5054333;28;20204;-60
2023/06/16 04:24:42;;;;;;;16.93;13.73;;;19.80;71.40;;;22.74;48.82;101681.72;5053912;28;20632;-60
2023/06/16 04:27:09;;;;;;;13.90;12.20;;;19.80;71.50;;;22.72;48.92;101678.47;5053255;28;20217;-59
2023/06/16 04:29:41;;;;;;;16.77;12.67;;;19.80;71.70;;;22.76;49.14;101678.81;5054182;28;20265;-59
2023/06/16 04:32:11;;;;;;;14.60;12.97;;;19.80;71.80;;;22.80;49.18;101682.66;5054272;28;20578;-58
2023/06/16 04:34:40;;;;;;;13.87;12.47;;;19.80;71.80;;;22.79;48.95;101684.53;5045490;28;20218;-60
2023/06/16 04:37:11;;;;;;;14.93;13.17;;;19.80;71.70;;;22.76;48.59;101676.94;5065454;28;20218;-58
2023/06/16 04:39:38;;;;;;;15.63;13.60;;;19.80;71.60;;;22.73;49.13;101679.25;5037688;28;20201;-60
2023/06/16 04:42:08;;;;;;;12.50;11.23;;;19.80;71.80;;;22.73;49.15;101677.41;5052199;28;20208;-59
2023/06/16 04:44:35;;;;;;;14.03;12.30;;;19.80;72.00;;;22.75;49.36;101672.63;5053101;28;20627;-58
2023/06/16 04:47:03;;;;;;;14.67;12.97;;;19.80;72.10;;;22.79;48.97;101676.50;5054014;28;20190;-59
2023/06/16 04:49:30;;;;;;;12.07;10.87;;;19.80;72.10;;;22.81;49.10;101671.69;5053809;28;20221;-59
2023/06/16 04:51:59;;;;;;;12.23;10.77;;;19.80;71.80;;;22.84;49.01;101670.44;5053720;28;20535;-58
2023/06/16 04:54:26;;;;;;;12.47;10.97;;;19.80;71.90;;;22.89;49.15;101668.66;5052904;28;20201;-57
2023/06/16 04:56:53;;;;;;;13.43;12.20;;;19.90;72.20;;;22.95;49.01;101671.47;5053533;28;20189;-59
2023/06/16 04:59:20;;;;;;;15.37;12.40;;;19.90;71.90;;;23.00;48.87;101671.59;5053431;28;20609;-58
2023/06/16 05:01:50;;;;;;;12.73;11.47;;;20.00;72.00;;;23.04;48.89;101675.44;5053703;28;20244;-59
2023/06/16 05:04:17;;;;;;;15.23;13.10;;;20.00;72.20;;;23.12;48.83;101675.09;5052995;28;20688;-59
2023/06/16 05:06:44;;;;;;;14.70;12.43;;;20.10;71.90;;;23.18;48.80;101676.81;5052267;28;20204;-61
2023/06/16 05:09:12;;;;;;;16.60;13.00;;;20.20;71.90;;;23.25;48.69;101677.56;5053606;28;20225;-57
2023/06/16 05:11:39;;;;;;;18.60;13.80;;;20.20;71.80;;;23.32;48.46;101672.88;5053791;28;20190;-60
2023/06/16 05:14:06;;;;;;;14.87;11.67;;;20.30;71.70;;;23.39;48.19;101668.22;5052649;28;20213;-59
2023/06/16 05:16:33;;;;;;;13.57;12.03;;;20.30;71.60;;;23.44;48.26;101665.63;5053399;28;20225;-59
2023/06/16 05:19:00;;;;;;;15.67;11.23;;;20.40;71.40;;;23.48;48.15;101666.78;5052877;28;20281;-58
2023/06/16 05:21:27;;;;;;;14.40;13.00;;;20.40;71.20;;;23.54;48.04;101663.97;5052204;28;20272;-60
2023/06/16 05:23:54;;;;;;;14.37;12.87;;;20.50;71.20;;;23.56;47.90;101669.09;5053017;28;20288;-60
2023/06/16 05:26:23;;;;;;;15.97;14.37;;;20.50;70.90;;;23.57;47.80;101665.38;5052799;28;20220;-59
2023/06/16 05:28:50;;;;;;;15.50;13.93;;;20.50;70.80;;;23.56;48.02;101669.91;5053079;28;20186;-60
2023/06/16 05:31:17;;;;;;;12.73;11.43;;;20.50;70.90;;;23.61;48.04;101665.69;5053343;28;20202;-59
2023/06/16 05:33:44;;;;;;;15.17;13.57;;;20.50;70.90;;;23.65;47.79;101667.69;5048367;28;20670;-60
2023/06/16 05:36:11;;;;;;;14.97;12.30;;;20.50;71.50;;;23.66;47.80;101669.31;5032343;28;20213;-59
2023/06/16 05:38:38;;;;;;;13.07;11.77;;;20.60;70.60;;;23.70;47.78;101658.91;5032731;28;20281;-60
2023/06/16 05:41:05;;;;;;;14.13;12.83;;;20.60;70.70;;;23.76;47.66;101668.69;5042894;28;20201;-59
2023/06/16 05:43:33;;;;;;;13.67;12.23;;;20.70;70.60;;;23.78;47.47;101667.41;5052145;28;20285;-59
2023/06/16 05:46:00;;;;;;;15.97;13.13;;;20.70;70.40;;;23.75;47.52;101667.88;5052998;28;20701;-59
2023/06/16 05:48:27;;;;;;;14.83;12.87;;;20.70;71.10;;;23.76;47.57;101661.47;5051735;28;20213;-58
2023/06/16 05:50:54;;;;;;;18.47;16.53;;;20.70;70.50;;;23.81;47.55;101661.56;5052680;28;20292;-61
2023/06/16 05:53:21;;;;;;;14.00;11.27;;;20.70;70.50;;;23.83;47.51;101659.44;5052398;28;20218;-59
2023/06/16 05:55:48;;;;;;;16.60;12.47;;;20.70;70.50;;;23.88;47.50;101662.25;5052568;28;20240;-58
2023/06/16 05:58:15;;;;;;;14.73;13.07;;;20.80;70.60;;;23.92;47.46;101655.31;5053271;28;20384;-58
2023/06/16 06:00:43;;;;;;;14.60;11.70;;;20.80;70.60;;;23.95;47.38;101652.16;5052132;28;20202;-59
2023/06/16 06:03:10;;;;;;;14.83;12.30;;;20.80;70.40;;;24.02;47.49;101657.38;5052972;28;20197;-58
2023/06/16 06:05:37;;;;;;;12.80;11.00;;;20.90;70.50;;;24.06;47.70;101659.38;5053139;28;20210;-57
2023/06/16 06:08:04;;;;;;;14.47;10.37;;;20.90;70.30;;;24.14;47.10;101660.88;5052842;28;20224;-59
2023/06/16 06:10:31;;;;;;;13.10;11.70;;;21.00;70.20;;;24.23;47.22;101662.94;5052317;28;20216;-59
2023/06/16 06:13:02;;;;;;;18.90;15.00;;;21.00;70.00;;;24.34;46.48;101666.63;5052664;28;20259;-59
2023/06/16 06:15:29;;;;;;;14.43;11.80;;;21.20;69.80;;;24.46;46.23;101663.88;5040569;28;20276;-61
2023/06/16 06:17:58;;;;;;;11.20;10.07;;;21.30;70.20;;;24.50;46.62;101665.84;5033098;28;20195;-60
2023/06/16 06:20:25;;;;;;;11.30;10.17;;;21.40;69.10;;;24.49;46.00;101663.38;5033248;28;20237;-59
2023/06/16 06:22:52;;;;;;;10.50;9.40;;;21.40;68.70;;;24.45;46.01;101665.75;5032560;28;20701;-60
2023/06/16 06:25:19;;;;;;;10.90;9.80;;;21.40;68.50;;;24.40;45.87;101659.44;5032605;28;20257;-58
2023/06/16 06:27:46;;;;;;;10.43;9.43;;;21.40;68.50;;;24.35;46.43;101667.44;5044635;28;20206;-62
2023/06/16 06:30:13;;;;;;;10.93;9.93;;;21.40;68.40;;;24.32;46.62;101670.63;5034802;28;20309;-59
2023/06/16 06:32:40;;;;;;;10.47;9.40;;;21.40;68.60;;;24.29;46.57;101660.34;5035956;28;20194;-58
2023/06/16 06:35:09;;;;;;;10.97;9.97;;;21.40;68.80;;;24.29;46.56;101668.41;5036141;28;20206;-59
2023/06/16 06:37:36;;;;;;;14.77;9.87;;;21.30;69.00;;;24.34;46.28;101666.63;5036615;28;20191;-59
2023/06/16 06:40:05;;;;;;;11.33;10.13;;;21.30;69.20;;;24.41;46.58;101661.91;5038249;28;20191;-59
2023/06/16 06:42:32;;;;;;;11.60;10.47;;;21.40;69.20;;;24.46;46.52;101666.56;5044882;28;20214;-60
2023/06/16 06:44:59;;;;;;;12.23;10.83;;;21.40;69.00;;;24.53;46.71;101664.53;5035137;28;20228;-59
2023/06/16 06:47:26;;;;;;;13.07;10.83;;;21.50;69.10;;;24.60;46.25;101665.19;5036068;28;20555;-58
2023/06/16 06:49:54;;;;;;;11.97;10.87;;;21.50;68.70;;;24.65;46.36;101665.28;5034795;28;20197;-60
2023/06/16 06:52:22;;;;;;;11.53;10.57;;;21.60;68.70;;;24.71;46.12;101656.19;5036106;28;20274;-58
2023/06/16 06:54:49;;;;;;;11.93;10.43;;;21.60;68.50;;;24.77;45.96;101655.25;5052414;28;20214;-65
2023/06/16 06:57:16;;;;;;;11.97;10.77;;;21.70;68.40;;;24.82;45.99;101658.00;5036440;28;20223;-60
2023/06/16 06:59:43;;;;;;;13.50;12.10;;;21.70;68.30;;;24.88;46.14;101659.72;5035906;28;20198;-58
2023/06/16 07:02:10;;;;;;;14.37;12.80;;;21.80;68.50;;;24.95;45.97;101659.56;5049569;28;20214;-59
2023/06/16 07:04:39;;;;;;;16.50;14.23;;;21.90;68.70;;;25.00;45.57;101660.47;5054885;28;20381;-58
2023/06/16 07:07:07;;;;;;;18.53;14.07;;;21.90;68.50;;;25.07;46.00;101655.72;5054960;28;20232;-59
2023/06/16 07:09:35;;;;;;;12.77;11.37;;;22.00;68.70;;;25.13;45.95;101660.09;5054744;28;20237;-58
2023/06/16 07:12:03;;;;;;;23.10;20.20;;;22.10;68.60;;;25.21;46.06;101659.69;5055376;28;20677;-58
2023/06/16 07:14:30;;;;;;;16.33;14.27;;;22.10;68.50;;;25.29;45.49;101659.22;5054749;28;20215;-58
2023/06/16 07:16:57;;;;;;;12.00;10.70;;;22.20;68.30;;;25.36;45.54;101665.28;5054361;28;20286;-59
2023/06/16 07:19:26;;;;;;;13.17;11.87;;;22.20;67.90;;;25.44;44.94;101670.25;5046769;28;20214;-59
2023/06/16 07:21:53;;;;;;;19.60;17.60;;;22.30;67.90;;;25.53;45.58;101666.06;5035158;28;20233;-58
2023/06/16 07:24:21;;;;;;;14.97;13.47;;;22.40;67.90;;;25.63;45.02;101659.16;5034819;28;20707;-58
2023/06/16 07:26:49;;;;;;;13.10;11.57;;;22.50;67.90;;;25.74;44.67;101661.75;5035877;28;20223;-59
2023/06/16 07:29:17;;;;;;;13.97;11.33;;;22.60;67.60;;;25.83;44.71;101667.50;5052474;28;20697;-59
2023/06/16 07:31:45;;;;;;;11.00;9.90;;;22.70;67.30;;;25.91;43.83;101658.97;5054967;28;20198;-59
2023/06/16 07:34:11;;;;;;;9.83;8.93;;;22.70;65.70;;;25.96;43.29;101664.44;5054825;28;20196;-64
2023/06/16 07:36:38;;;;;;;9.23;8.27;;;22.80;64.70;;;25.97;42.75;101658.75;5047677;28;20258;-57
2023/06/16 07:39:05;;;;;;;16.73;9.67;;;22.80;63.70;;;25.99;42.22;101658.50;5034955;28;20246;-61
2023/06/16 07:41:33;;;;;;;10.20;8.37;;;22.90;63.40;;;26.05;42.05;101657.50;5042769;28;20606;-57
2023/06/16 07:44:01;;;;;;;10.13;8.00;;;23.00;63.30;;;26.13;42.14;101659.75;5037589;28;20199;-59
2023/06/16 07:46:28;;;;;;;9.77;8.30;;;23.00;63.30;;;26.20;42.15;101661.19;5046608;28;20234;-59
2023/06/16 07:48:55;;;;;;;7.13;6.43;;;23.10;63.40;;;26.32;42.06;101663.72;5043789;28;20186;-61
2023/06/16 07:51:23;;;;;;;10.23;9.23;;;23.20;63.60;;;26.44;42.02;101656.28;5054324;28;20757;-62
2023/06/16 07:53:50;;;;;;;8.83;7.93;;;23.30;63.30;;;26.56;41.55;101656.09;5055037;28;20198;-59
2023/06/16 07:56:18;;;;;;;8.80;7.60;;;23.40;62.90;;;26.65;41.90;101657.25;5054627;28;20217;-60
2023/06/16 07:58:45;;;;;;;8.80;8.03;;;23.50;62.50;;;26.73;41.01;101654.06;5054529;28;20194;-60
2023/06/16 08:01:13;;;;;;;11.20;7.83;;;23.60;62.00;;;26.78;41.59;101657.66;5054513;28;20206;-59
2023/06/16 08:03:46;;;;;;;8.40;7.60;;;23.60;61.60;;;26.79;40.86;101653.88;5051626;28;20190;-60
2023/06/16 08:06:14;;;;;;;7.40;6.80;;;23.70;61.60;;;26.80;41.36;101647.41;5054672;28;20225;-59
2023/06/16 08:08:41;;;;;;;8.47;6.67;;;23.80;61.20;;;26.86;41.01;101648.28;5053328;28;20273;-59
2023/06/16 08:11:08;;;;;;;9.27;7.70;;;23.80;61.00;;;26.98;41.44;101645.38;5053499;28;20288;-58
2023/06/16 08:13:35;;;;;;;8.43;7.53;;;23.90;61.50;;;27.11;41.28;101644.91;5053905;28;20220;-56
2023/06/16 08:16:04;;;;;;;7.73;6.40;;;24.00;61.60;;;27.26;40.79;101645.00;5054417;28;20214;-58
2023/06/16 08:18:33;;;;;;;7.57;6.80;;;24.00;61.20;;;27.71;40.67;101639.78;5054763;28;20196;-59
2023/06/16 08:21:00;;;;;;;8.07;6.13;;;24.20;61.50;;;28.61;38.89;101636.44;5035982;28;20202;-60
2023/06/16 08:23:27;;;;;;;6.80;6.20;;;24.40;61.30;;;29.77;37.43;101644.25;5033731;28;20263;-59
2023/06/16 08:25:55;;;;;;;6.80;5.93;;;24.80;60.80;;;30.88;35.50;101645.34;5033708;28;20234;-59
2023/06/16 08:28:22;;;;;;;6.80;6.17;;;25.40;58.90;;;31.86;33.34;101640.91;5033514;28;20201;-59
2023/06/16 08:30:49;;;;;;;7.97;6.33;;;26.10;57.20;;;32.64;31.75;101637.53;5033765;28;20198;-59
2023/06/16 08:33:17;;;;;;;10.83;6.50;;;26.70;55.50;;;33.37;31.31;101635.59;5039555;28;20194;-59
2023/06/16 08:35:46;;;;;;;6.53;5.13;;;27.30;54.80;;;34.17;30.11;101640.38;5053072;28;20312;-58
2023/06/16 08:38:13;;;;;;;7.50;5.80;;;28.00;52.80;;;34.61;28.79;101637.63;5052433;28;20594;-57
2023/06/16 08:40:40;;;;;;;8.90;6.43;;;28.50;50.00;;;34.92;28.39;101645.03;5053400;28;20268;-58
2023/06/16 08:43:11;;;;;;;5.33;4.93;;;29.00;48.90;;;35.15;27.87;101628.25;5051681;28;20742;-59
2023/06/16 08:45:40;;;;;;;7.17;5.97;;;29.30;48.20;;;35.18;27.23;101637.75;5037300;28;20218;-60
2023/06/16 08:48:10;;;;;;;6.17;5.77;;;29.60;46.20;;;35.02;27.42;101639.25;5045137;28;20193;-61
2023/06/16 08:50:37;;;;;;;6.90;5.03;;;29.70;44.80;;;34.76;27.54;101630.94;5053806;28;20213;-58
2023/06/16 08:53:10;;;;;;;8.07;6.03;;;29.70;44.70;;;34.28;27.98;101625.31;5050430;28;20201;-58
2023/06/16 08:55:40;;;;;;;8.70;6.00;;;29.70;44.40;;;34.07;28.87;101628.88;5053811;28;20229;-57
2023/06/16 08:58:12;;;;;;;6.20;5.60;;;29.60;45.00;;;34.52;28.23;101627.72;5053310;28;20316;-58
2023/06/16 09:00:41;;;;;;;7.07;6.40;;;29.60;45.20;;;35.48;27.07;101636.84;5053262;28;20193;-58
2023/06/16 09:03:08;;;;;;;9.33;8.33;;;29.70;45.00;;;36.56;26.16;101618.31;5041154;28;20592;-59
2023/06/16 09:05:36;;;;;;;7.07;4.97;;;30.10;45.30;;;37.07;24.59;101631.06;5033276;28;20214;-60
2023/06/16 09:08:05;;;;;;;7.73;5.67;;;30.50;42.70;;;37.08;24.20;101629.94;5044790;28;20252;-59
2023/06/16 09:10:34;;;;;;;6.57;5.90;;;30.80;40.80;;;36.74;24.87;101630.06;5046198;28;20200;-59
2023/06/16 09:13:02;;;;;;;6.82;5.65;;;31.00;40.40;;;36.35;24.58;101633.84;5051476;28;20198;-59
2023/06/16 09:15:33;;;;;;;7.78;5.28;;;31.00;40.20;;;36.38;25.49;101632.38;5048286;28;20276;-59
2023/06/16 09:18:06;;;;;;;6.00;5.17;;;31.00;40.40;;;36.86;25.07;101632.91;5040379;28;20603;-59
2023/06/16 09:20:39;;;;;;;6.32;5.70;;;31.10;40.90;;;37.55;23.53;101632.59;5053213;28;20182;-60
2023/06/16 09:23:08;;;;;;;5.32;4.80;;;31.20;39.20;;;37.97;22.71;101626.78;5049484;28;20378;-59
2023/06/16 09:25:38;;;;;;;6.03;4.78;;;31.40;39.20;;;38.13;22.80;101621.47;5042229;28;20257;-61
2023/06/16 09:28:08;;;;;;;5.00;4.60;;;31.60;38.60;;;37.84;23.46;101625.13;5046585;28;20190;-60
2023/06/16 09:30:36;;;;;;;4.82;4.43;;;31.80;38.30;;;37.92;23.15;101632.47;5052548;28;20190;-59
2023/06/16 09:33:06;;;;;;;4.97;4.57;;;31.90;38.20;;;38.43;22.61;101633.97;5052341;28;20282;-59
2023/06/16 09:35:33;;;;;;;10.68;5.50;;;32.20;37.90;;;38.56;22.02;101640.31;5049277;28;20217;-57
2023/06/16 09:38:03;;;;;;;6.70;6.20;;;32.30;36.20;;;38.25;22.01;101637.97;5050944;28;20662;-59
2023/06/16 09:40:32;;;;;;;6.47;5.97;;;32.40;36.10;;;37.87;22.35;101631.91;5048830;28;20268;-59
2023/06/16 09:43:06;;;;;;;10.00;7.32;;;32.40;36.20;;;37.57;22.35;101641.28;5051065;28;20701;-60
2023/06/16 09:45:34;;;;;;;5.50;5.00;;;32.10;35.40;;;37.12;23.25;101641.06;5051223;28;20618;-59
2023/06/16 09:48:04;;;;;;;5.22;4.72;;;32.00;36.20;;;36.57;23.65;101630.09;5049151;28;20216;-59
2023/06/16 09:50:32;;;;;;;5.00;4.50;;;31.80;36.40;;;35.95;24.54;101635.97;5040489;28;20186;-60
2023/06/16 09:53:06;;;;;;;6.13;5.20;;;31.50;36.90;;;35.28;25.50;101634.69;5034851;28;20186;-59
2023/06/16 09:55:37;;;;;;;5.70;4.77;;;31.20;37.30;;;34.72;25.84;101633.53;5034824;28;20244;-59
2023/06/16 09:58:06;;;;;;;5.90;5.40;;;30.70;38.00;;;34.26;26.32;101627.56;5034247;28;20191;-60
2023/06/16 10:00:34;;;;;;;9.00;6.47;;;30.50;38.90;;;34.22;26.46;101623.84;5032565;28;20544;-59
2023/06/16 10:03:06;;;;;;;5.47;4.93;;;30.20;39.30;;;34.38;26.35;101627.81;5052016;28;20189;-58
2023/06/16 10:05:36;;;;;;;6.17;5.43;;;29.90;39.80;;;35.00;25.77;101625.09;5039552;28;20590;-61
2023/06/16 10:08:06;;;;;;;5.60;5.10;;;30.00;40.20;;;35.99;25.25;101631.47;5035862;28;20324;-57
2023/06/16 10:10:41;;;;;;;5.30;4.80;;;30.10;40.20;;;37.37;24.08;101625.56;5036986;28;20210;-61
2023/06/16 10:13:11;;;;;;;7.57;6.97;;;30.50;40.20;;;38.27;22.05;101632.97;5038568;28;20261;-63